Time;durP1;ratioP1;P1;durP2;ratioP2;P2;SDS_P1;SDS_P2;PMS_P1;PMS_P2;Temp;Humidity;BMP_temperature;BMP_pressure;BME280_temperature;BME280_humidity;BME280_pressure;Samples;Min_cycle;Max_cycle;Signal;HPM_P1;HPM_P2
2022/02/15 00:02:05;;;;;;;7.78;5.00;;;8.90;99.90;;;;;;5053398;28;20308;-81
2022/02/15 00:04:32;;;;;;;11.48;4.15;;;8.90;99.90;;;;;;5070018;28;20305;-82
2022/02/15 00:06:59;;;;;;;5.90;4.00;;;9.00;99.90;;;;;;5074715;28;20742;-83
2022/02/15 00:09:26;;;;;;;6.35;3.75;;;8.90;99.90;;;;;;5063188;28;20250;-80
2022/02/15 00:11:53;;;;;;;9.80;4.53;;;8.90;99.90;;;;;;5074785;28;20225;-82
2022/02/15 00:14:21;;;;;;;12.93;5.38;;;8.80;99.90;;;;;;5080726;28;20203;-81
2022/02/15 00:16:51;;;;;;;14.75;3.92;;;8.80;99.90;;;;;;5070916;28;20222;-83
2022/02/15 00:19:18;;;;;;;4.20;3.78;;;8.80;99.90;;;;;;5077548;28;20302;-80
2022/02/15 00:21:45;;;;;;;5.13;4.22;;;8.80;99.90;;;;;;5074550;28;20206;-81
2022/02/15 00:24:12;;;;;;;7.57;5.03;;;8.80;99.90;;;;;;5074939;28;20249;-80
2022/02/15 00:26:39;;;;;;;5.97;4.50;;;8.80;99.90;;;;;;5085392;28;20208;-81
2022/02/15 00:29:06;;;;;;;10.80;3.97;;;8.80;99.90;;;;;;5073426;28;20238;-80
2022/02/15 00:31:34;;;;;;;7.43;3.72;;;8.80;99.90;;;;;;5074288;28;20208;-81
2022/02/15 00:34:01;;;;;;;6.65;4.22;;;8.70;99.90;;;;;;5074753;28;20222;-81
2022/02/15 00:36:29;;;;;;;8.18;4.25;;;8.70;99.90;;;;;;5091489;28;20198;-82
2022/02/15 00:38:56;;;;;;;9.55;4.70;;;8.80;99.90;;;;;;5078794;28;20218;-81
2022/02/15 00:41:23;;;;;;;6.85;4.10;;;8.70;99.90;;;;;;5087162;28;20207;-81
2022/02/15 00:43:50;;;;;;;11.52;7.78;;;8.70;99.90;;;;;;5082812;28;20302;-82
2022/02/15 00:46:17;;;;;;;11.23;5.40;;;8.70;99.90;;;;;;5074942;28;20210;-82
2022/02/15 00:48:45;;;;;;;8.50;5.03;;;8.70;99.90;;;;;;5074544;28;20309;-81
2022/02/15 00:51:12;;;;;;;7.90;4.32;;;8.70;99.90;;;;;;5075299;28;20195;-81
2022/02/15 00:53:39;;;;;;;14.27;4.68;;;8.70;99.90;;;;;;5085952;28;20207;-81
2022/02/15 00:56:07;;;;;;;13.60;7.30;;;8.60;99.90;;;;;;5088689;28;20206;-82
2022/02/15 00:58:34;;;;;;;11.65;5.38;;;8.60;99.90;;;;;;5094248;28;20223;-81
2022/02/15 01:01:00;;;;;;;9.30;4.82;;;8.60;99.90;;;;;;5087119;28;20184;-80
2022/02/15 01:03:27;;;;;;;7.03;4.55;;;8.70;99.90;;;;;;5096923;28;20187;-81
2022/02/15 01:05:57;;;;;;;7.13;5.10;;;8.60;99.90;;;;;;5101090;28;20191;-79
2022/02/15 01:08:24;;;;;;;10.40;6.05;;;8.70;99.90;;;;;;5097818;28;20229;-81
2022/02/15 01:10:51;;;;;;;6.53;4.28;;;8.70;99.90;;;;;;5083512;28;20210;-82
2022/02/15 01:13:18;;;;;;;15.60;5.32;;;8.60;99.90;;;;;;5076834;28;20219;-82
2022/02/15 01:15:46;;;;;;;11.52;5.43;;;8.60;99.90;;;;;;5084511;28;20285;-82
2022/02/15 01:18:13;;;;;;;7.13;5.10;;;8.60;99.90;;;;;;5067633;28;20228;-81
2022/02/15 01:20:40;;;;;;;8.48;5.07;;;8.60;99.90;;;;;;5074767;28;20199;-82
2022/02/15 01:23:08;;;;;;;14.23;6.25;;;8.70;99.90;;;;;;5084932;28;20299;-80
2022/02/15 01:25:35;;;;;;;7.03;5.80;;;8.60;99.90;;;;;;5072527;28;20227;-81
2022/02/15 01:28:02;;;;;;;7.30;5.55;;;8.60;99.90;;;;;;5074011;28;20214;-81
2022/02/15 01:30:29;;;;;;;7.50;6.22;;;8.60;99.90;;;;;;5073704;28;20763;-80
2022/02/15 01:32:56;;;;;;;7.68;6.32;;;8.60;99.90;;;;;;5083889;28;20229;-82
2022/02/15 01:35:24;;;;;;;7.70;6.88;;;8.60;99.90;;;;;;5083010;28;20258;-80
2022/02/15 01:37:51;;;;;;;10.93;6.90;;;8.60;99.90;;;;;;5074474;28;20203;-82
2022/02/15 01:40:19;;;;;;;14.07;6.45;;;8.60;99.90;;;;;;5076979;28;20219;-81
2022/02/15 01:42:46;;;;;;;7.07;5.10;;;8.60;99.90;;;;;;5079641;28;20199;-81
2022/02/15 01:45:15;;;;;;;9.20;6.03;;;8.50;99.90;;;;;;5073715;28;20226;-81
2022/02/15 01:47:42;;;;;;;8.45;6.43;;;8.60;99.90;;;;;;5073968;28;20203;-82
2022/02/15 01:50:09;;;;;;;8.05;5.10;;;8.50;99.90;;;;;;5079449;28;20233;-82
2022/02/15 01:52:36;;;;;;;10.73;6.20;;;8.40;99.90;;;;;;5071124;28;20275;-80
2022/02/15 01:55:06;;;;;;;8.07;4.88;;;8.40;99.90;;;;;;5067135;28;20267;-81
2022/02/15 01:57:35;;;;;;;12.15;6.47;;;8.30;99.90;;;;;;5077152;28;20290;-81
2022/02/15 02:00:04;;;;;;;8.02;6.35;;;8.30;99.90;;;;;;5084254;28;20284;-81
2022/02/15 02:02:31;;;;;;;8.45;6.35;;;8.10;99.90;;;;;;5084528;28;20195;-80
2022/02/15 02:07:43;;;;;;;7.65;6.40;;;8.10;99.90;;;;;;5092531;28;20233;-81
2022/02/15 02:10:11;;;;;;;16.80;5.50;;;8.10;99.90;;;;;;5086359;28;20222;-81
2022/02/15 02:12:40;;;;;;;10.05;4.90;;;8.10;99.90;;;;;;5088024;28;20211;-79
2022/02/15 02:15:09;;;;;;;5.57;5.05;;;8.20;99.90;;;;;;5063906;28;20299;-82
2022/02/15 02:17:37;;;;;;;9.18;4.88;;;8.20;99.90;;;;;;5081506;28;20230;-81
2022/02/15 02:20:05;;;;;;;5.43;4.15;;;8.30;99.90;;;;;;5078377;28;20235;-81
2022/02/15 02:22:34;;;;;;;4.03;3.00;;;8.20;99.90;;;;;;5072168;28;20210;-81
2022/02/15 02:25:01;;;;;;;12.55;3.20;;;8.30;99.90;;;;;;5073004;28;20207;-83
2022/02/15 02:27:29;;;;;;;3.65;3.35;;;8.20;99.90;;;;;;5081652;28;20269;-82
2022/02/15 02:29:56;;;;;;;6.68;3.95;;;8.20;99.90;;;;;;5071394;28;20226;-82
2022/02/15 02:32:24;;;;;;;5.40;4.07;;;8.20;99.90;;;;;;5069819;28;20218;-82
2022/02/15 02:34:51;;;;;;;5.25;4.10;;;8.20;99.90;;;;;;5070673;28;20241;-81
2022/02/15 02:37:19;;;;;;;10.15;4.80;;;8.20;99.90;;;;;;5075347;28;20262;-81
2022/02/15 02:39:49;;;;;;;5.05;4.35;;;8.20;99.90;;;;;;5077178;28;20302;-81
2022/02/15 02:42:17;;;;;;;7.30;5.53;;;8.10;99.90;;;;;;5087945;28;20233;-82
2022/02/15 02:44:44;;;;;;;5.25;4.10;;;8.10;99.90;;;;;;5073171;28;20221;-81
2022/02/15 02:47:11;;;;;;;6.68;4.20;;;8.10;99.90;;;;;;5079051;28;20206;-82
2022/02/15 02:49:39;;;;;;;5.40;4.28;;;8.10;99.90;;;;;;5072207;28;20226;-82
2022/02/15 02:52:06;;;;;;;8.50;4.90;;;8.10;99.90;;;;;;5076407;28;20239;-82
2022/02/15 02:54:33;;;;;;;4.85;3.30;;;8.00;99.90;;;;;;5080958;28;20227;-82
2022/02/15 02:57:02;;;;;;;6.13;4.05;;;8.00;99.90;;;;;;5078324;28;20194;-82
2022/02/15 02:59:30;;;;;;;6.13;3.85;;;8.00;99.90;;;;;;5084728;28;20253;-82
2022/02/15 03:01:57;;;;;;;6.60;4.40;;;8.00;99.90;;;;;;5068947;28;20205;-82
2022/02/15 03:04:24;;;;;;;4.38;3.90;;;8.10;99.90;;;;;;5081964;28;20206;-81
2022/02/15 03:06:51;;;;;;;5.90;4.35;;;7.90;99.90;;;;;;5072355;28;20257;-81
2022/02/15 03:09:18;;;;;;;3.88;3.17;;;8.00;99.90;;;;;;5081595;28;20617;-82
2022/02/15 03:11:45;;;;;;;5.57;3.97;;;7.90;99.90;;;;;;5082687;28;20239;-82
2022/02/15 03:14:13;;;;;;;6.35;3.88;;;8.00;99.90;;;;;;5079659;28;20226;-82
2022/02/15 03:16:40;;;;;;;6.57;3.95;;;8.00;99.90;;;;;;5080784;28;20273;-82
2022/02/15 03:19:07;;;;;;;5.57;3.83;;;8.00;99.90;;;;;;5072470;28;20242;-82
2022/02/15 03:21:33;;;;;;;5.70;3.58;;;7.90;99.90;;;;;;5072329;28;20270;-81
2022/02/15 03:24:00;;;;;;;3.95;3.33;;;7.90;99.90;;;;;;5073177;28;20230;-81
2022/02/15 03:26:28;;;;;;;5.10;3.17;;;7.80;99.90;;;;;;5076897;28;20210;-82
2022/02/15 03:28:54;;;;;;;11.27;5.07;;;7.90;99.90;;;;;;5074106;28;20207;-82
2022/02/15 03:31:24;;;;;;;7.50;3.60;;;7.90;99.90;;;;;;5078045;28;20191;-82
2022/02/15 03:33:51;;;;;;;6.18;3.50;;;7.90;99.90;;;;;;5091376;28;20186;-81
2022/02/15 03:36:18;;;;;;;4.28;3.10;;;7.80;99.90;;;;;;5078616;28;20235;-81
2022/02/15 03:38:45;;;;;;;3.45;3.10;;;7.80;99.90;;;;;;5078349;28;20244;-81
2022/02/15 03:44:08;;;;;;;3.55;2.88;;;7.70;99.90;;;;;;5017743;28;20217;-80
2022/02/15 03:46:36;;;;;;;4.00;3.17;;;7.70;99.90;;;;;;5058686;28;20213;-80
2022/02/15 03:49:03;;;;;;;5.70;3.25;;;7.70;99.90;;;;;;5098092;28;20202;-80
2022/02/15 03:51:30;;;;;;;4.20;3.80;;;7.70;99.90;;;;;;5086743;28;20210;-79
2022/02/15 03:53:57;;;;;;;5.88;4.68;;;7.70;99.90;;;;;;5072031;28;20261;-80
2022/02/15 03:56:24;;;;;;;4.88;3.88;;;7.70;99.90;;;;;;5073429;28;20233;-81
2022/02/15 03:58:51;;;;;;;6.32;3.80;;;7.60;99.90;;;;;;5084293;28;20248;-81
2022/02/15 04:01:17;;;;;;;5.32;4.03;;;7.60;99.90;;;;;;5076213;28;20298;-81
2022/02/15 04:03:46;;;;;;;8.60;5.00;;;7.60;99.90;;;;;;5080197;28;20274;-79
2022/02/15 04:06:12;;;;;;;8.50;5.03;;;7.60;99.90;;;;;;5071077;28;20237;-81
2022/02/15 04:08:39;;;;;;;7.03;4.97;;;7.60;99.90;;;;;;5062081;28;20261;-79
2022/02/15 04:11:06;;;;;;;8.13;4.70;;;7.60;99.90;;;;;;5071959;28;20268;-81
2022/02/15 04:13:33;;;;;;;7.80;4.97;;;7.60;99.90;;;;;;5072703;28;20274;-81
2022/02/15 04:16:00;;;;;;;8.65;5.55;;;7.50;99.90;;;;;;5068774;28;20257;-82
2022/02/15 04:18:27;;;;;;;8.60;6.43;;;7.50;99.90;;;;;;5084280;28;20200;-81
2022/02/15 04:20:56;;;;;;;11.05;6.28;;;7.50;99.90;;;;;;5068961;28;20195;-81
2022/02/15 04:23:23;;;;;;;7.47;5.90;;;7.50;99.90;;;;;;5077174;28;20182;-81
2022/02/15 04:25:51;;;;;;;9.20;6.57;;;7.50;99.90;;;;;;5076426;28;20202;-82
2022/02/15 04:28:18;;;;;;;11.55;6.75;;;7.50;99.90;;;;;;5071585;28;20209;-82
2022/02/15 04:30:45;;;;;;;8.50;5.22;;;7.50;99.90;;;;;;5072486;28;20229;-81
2022/02/15 04:33:13;;;;;;;12.52;6.32;;;7.40;99.90;;;;;;5078807;28;20198;-81
2022/02/15 04:35:40;;;;;;;6.00;4.70;;;7.40;99.90;;;;;;5070335;28;20226;-81
2022/02/15 04:38:08;;;;;;;12.15;6.15;;;7.50;99.90;;;;;;5084698;28;20201;-81
2022/02/15 04:40:35;;;;;;;12.98;5.45;;;7.40;99.90;;;;;;5068626;28;20263;-80
2022/02/15 04:43:02;;;;;;;8.10;6.25;;;7.40;99.90;;;;;;5089699;28;20194;-80
2022/02/15 04:45:29;;;;;;;9.15;6.45;;;7.40;99.90;;;;;;5093600;28;20221;-82
2022/02/15 04:47:56;;;;;;;8.65;5.25;;;7.40;99.90;;;;;;5076881;28;20258;-82
2022/02/15 04:50:46;;;;;;;7.53;5.60;;;7.40;99.90;;;;;;5076793;28;20226;-82
2022/02/15 04:53:14;;;;;;;9.15;5.50;;;7.40;99.90;;;;;;5066916;28;20202;-82
2022/02/15 04:55:41;;;;;;;9.98;5.85;;;7.40;99.90;;;;;;5081962;28;20289;-82
2022/02/15 04:58:08;;;;;;;8.95;5.43;;;7.40;99.90;;;;;;5072159;28;20230;-82
2022/02/15 05:00:35;;;;;;;7.03;5.22;;;7.60;99.90;;;;;;5084192;28;20267;-81
2022/02/15 05:03:02;;;;;;;9.00;6.57;;;7.50;99.90;;;;;;5070992;28;20271;-81
2022/02/15 05:05:30;;;;;;;10.23;6.00;;;7.50;99.90;;;;;;5074638;28;20269;-82
2022/02/15 05:07:57;;;;;;;8.07;6.13;;;7.50;99.90;;;;;;5080813;28;20211;-83
2022/02/15 05:10:25;;;;;;;15.07;7.00;;;7.50;99.90;;;;;;5077968;28;20225;-82
2022/02/15 05:12:52;;;;;;;7.50;5.30;;;7.50;99.90;;;;;;5071046;28;20263;-81
2022/02/15 05:15:19;;;;;;;9.00;6.70;;;7.70;99.90;;;;;;5083072;28;20221;-82
2022/02/15 05:17:47;;;;;;;16.70;6.20;;;7.60;99.90;;;;;;5074782;28;20206;-83
2022/02/15 05:20:16;;;;;;;8.88;6.10;;;7.50;99.90;;;;;;5074642;28;20653;-82
2022/02/15 05:22:43;;;;;;;10.30;7.15;;;7.50;99.90;;;;;;5092591;28;20213;-81
2022/02/15 05:25:11;;;;;;;7.78;6.40;;;7.50;99.90;;;;;;5082530;28;20214;-81
2022/02/15 05:27:40;;;;;;;9.18;6.50;;;7.40;99.90;;;;;;5096845;28;20218;-81
2022/02/15 05:30:08;;;;;;;9.07;5.88;;;7.40;99.90;;;;;;5093278;28;20226;-81
2022/02/15 05:32:35;;;;;;;8.80;7.40;;;7.50;99.90;;;;;;5077511;28;20234;-81
2022/02/15 05:35:02;;;;;;;9.98;6.25;;;7.40;99.90;;;;;;5082633;28;20659;-82
2022/02/15 05:37:28;;;;;;;17.33;7.35;;;7.40;99.90;;;;;;5073927;28;20211;-81
2022/02/15 05:39:55;;;;;;;11.80;7.55;;;7.30;99.90;;;;;;5078336;28;20265;-81
2022/02/15 05:42:22;;;;;;;14.07;7.32;;;7.40;99.90;;;;;;5089957;28;20191;-82
2022/02/15 05:44:50;;;;;;;7.03;6.05;;;7.40;99.90;;;;;;5074089;28;20215;-81
2022/02/15 05:47:17;;;;;;;12.05;7.90;;;7.40;99.90;;;;;;5073585;28;20213;-81
2022/02/15 05:52:29;;;;;;;10.82;7.30;;;7.20;99.90;;;;;;5069457;28;20223;-81
2022/02/15 05:54:56;;;;;;;10.93;8.85;;;7.20;99.90;;;;;;5088018;28;20259;-80
2022/02/15 05:57:23;;;;;;;13.82;8.38;;;7.20;99.90;;;;;;5073441;28;20281;-83
2022/02/15 05:59:51;;;;;;;12.77;8.02;;;7.20;99.90;;;;;;5072513;28;20284;-82
2022/02/15 06:02:18;;;;;;;12.70;8.15;;;7.20;99.90;;;;;;5073224;28;20202;-82
2022/02/15 06:04:45;;;;;;;11.90;8.73;;;7.20;99.90;;;;;;5075666;28;20935;-82
2022/02/15 06:07:12;;;;;;;10.93;8.40;;;7.20;99.90;;;;;;5079432;28;20695;-82
2022/02/15 06:09:39;;;;;;;11.63;7.32;;;7.20;99.90;;;;;;5078919;28;20258;-81
2022/02/15 06:12:07;;;;;;;10.48;7.70;;;7.20;99.90;;;;;;5084854;28;20236;-81
2022/02/15 06:14:34;;;;;;;15.65;9.65;;;7.20;99.90;;;;;;5083016;28;20225;-82
2022/02/15 06:17:03;;;;;;;18.05;8.90;;;7.30;99.90;;;;;;5075535;28;20360;-83
2022/02/15 06:19:30;;;;;;;10.32;8.10;;;7.30;99.90;;;;;;5076981;28;20230;-85
2022/02/15 06:21:57;;;;;;;16.35;9.80;;;7.40;99.90;;;;;;5083958;28;20233;-83
2022/02/15 06:24:24;;;;;;;17.58;9.18;;;7.40;99.90;;;;;;5062666;28;20270;-82
2022/02/15 06:26:51;;;;;;;14.35;9.10;;;7.40;99.90;;;;;;5057249;28;20229;-81
2022/02/15 06:29:18;;;;;;;11.88;7.85;;;7.40;99.90;;;;;;5063594;28;20320;-82
2022/02/15 06:31:45;;;;;;;16.25;9.32;;;7.40;99.90;;;;;;5067291;28;20211;-85
2022/02/15 06:34:14;;;;;;;17.10;9.73;;;7.40;99.90;;;;;;5073217;28;20577;-83
2022/02/15 06:36:41;;;;;;;17.70;9.93;;;7.40;99.90;;;;;;5073057;28;20240;-84
2022/02/15 06:39:09;;;;;;;13.55;9.30;;;7.50;99.90;;;;;;5090169;28;20222;-82
2022/02/15 06:41:37;;;;;;;17.40;9.60;;;7.40;99.90;;;;;;5074602;28;20202;-82
2022/02/15 06:44:05;;;;;;;14.20;9.50;;;7.50;99.90;;;;;;5059486;28;20206;-82
2022/02/15 06:46:32;;;;;;;15.30;8.73;;;7.50;99.90;;;;;;5074151;28;20648;-80
2022/02/15 06:48:59;;;;;;;18.88;10.40;;;7.50;99.90;;;;;;5081938;28;20222;-79
2022/02/15 06:51:27;;;;;;;14.63;9.15;;;7.50;99.90;;;;;;5073520;28;20259;-81
2022/02/15 06:53:54;;;;;;;11.65;9.45;;;7.50;99.90;;;;;;5072422;28;20210;-82
2022/02/15 06:56:21;;;;;;;15.32;9.65;;;7.50;99.90;;;;;;5079266;28;20269;-82
2022/02/15 06:58:48;;;;;;;14.88;9.60;;;7.50;99.90;;;;;;5078940;28;20226;-82
2022/02/15 07:01:15;;;;;;;13.93;8.60;;;7.50;99.90;;;;;;5078430;28;20236;-83
2022/02/15 07:03:54;;;;;;;16.33;9.85;;;7.40;99.90;;;;;;5081505;28;20205;-82
2022/02/15 07:06:21;;;;;;;22.17;11.48;;;7.50;99.90;;;;;;5070914;28;20206;-82
2022/02/15 07:08:57;;;;;;;13.32;8.93;;;7.30;99.90;;;;;;5073341;28;20334;-84
2022/02/15 07:11:32;;;;;;;15.40;8.65;;;7.50;99.90;;;;;;5082336;28;20209;-83
2022/02/15 07:13:59;;;;;;;11.60;9.32;;;7.50;99.90;;;;;;5085720;28;20243;-83
2022/02/15 07:16:26;;;;;;;13.20;9.95;;;7.50;99.90;;;;;;5080441;28;20283;-84
2022/02/15 07:18:52;;;;;;;17.35;10.38;;;7.60;99.90;;;;;;5067414;28;20226;-83
2022/02/15 07:21:26;;;;;;;11.57;9.15;;;7.60;99.90;;;;;;5073444;28;20198;-83
2022/02/15 07:23:55;;;;;;;14.30;9.20;;;7.60;99.90;;;;;;5072281;28;20216;-84
2022/02/15 07:26:24;;;;;;;17.30;11.20;;;7.60;99.90;;;;;;5077099;28;20191;-84
2022/02/15 07:28:52;;;;;;;13.68;9.50;;;7.80;99.90;;;;;;5071941;28;20218;-84
2022/02/15 07:31:19;;;;;;;12.93;8.15;;;7.70;99.90;;;;;;5073620;28;20207;-81
2022/02/15 07:33:46;;;;;;;16.35;9.48;;;7.70;99.90;;;;;;5073190;28;20210;-83
2022/02/15 07:36:13;;;;;;;11.05;7.78;;;7.80;99.90;;;;;;5072481;28;20208;-81
2022/02/15 07:38:40;;;;;;;9.82;6.95;;;8.50;99.90;;;;;;5074672;28;20227;-81
2022/02/15 07:41:09;;;;;;;15.75;8.73;;;9.00;99.90;;;;;;5065741;28;20215;-83
2022/02/15 07:43:36;;;;;;;10.30;7.57;;;9.10;99.90;;;;;;5078494;28;20341;-83
2022/02/15 07:46:03;;;;;;;11.98;7.53;;;8.80;99.90;;;;;;5071813;28;20251;-83
2022/02/15 07:48:34;;;;;;;10.70;8.82;;;8.70;99.90;;;;;;5075372;28;20247;-83
2022/02/15 07:51:01;;;;;;;18.38;8.93;;;8.60;99.90;;;;;;5074174;28;20207;-85
2022/02/15 07:53:28;;;;;;;11.05;8.43;;;8.40;99.90;;;;;;5061575;28;20208;-84
2022/02/15 07:55:56;;;;;;;13.90;8.70;;;8.40;99.90;;;;;;5058597;28;20199;-85
2022/02/15 07:58:27;;;;;;;11.23;8.25;;;8.40;99.90;;;;;;5071663;28;20198;-84
2022/02/15 08:00:54;;;;;;;14.77;10.25;;;8.20;99.90;;;;;;5090720;28;20190;-85
2022/02/15 08:03:22;;;;;;;11.45;8.15;;;8.20;99.90;;;;;;5080335;28;20210;-83
2022/02/15 08:05:49;;;;;;;15.43;9.55;;;8.10;99.90;;;;;;5081973;28;20238;-83
2022/02/15 08:08:17;;;;;;;15.70;10.18;;;7.90;99.90;;;;;;5073513;28;20230;-80
2022/02/15 08:10:44;;;;;;;11.10;7.72;;;8.00;99.90;;;;;;5075217;28;20191;-84
2022/02/15 08:13:18;;;;;;;13.43;9.60;;;8.00;99.90;;;;;;5082486;28;20174;-82
2022/02/15 08:15:48;;;;;;;13.75;9.52;;;8.00;99.90;;;;;;5085116;28;20187;-81
2022/02/15 08:18:16;;;;;;;14.27;10.02;;;8.00;99.90;;;;;;5078111;28;20259;-78
2022/02/15 08:20:43;;;;;;;18.02;10.13;;;8.00;99.90;;;;;;5084597;28;20293;-79
2022/02/15 08:23:11;;;;;;;12.40;9.15;;;8.00;99.90;;;;;;5069036;28;20192;-79
2022/02/15 08:25:38;;;;;;;16.88;9.48;;;8.10;99.90;;;;;;5067006;28;20199;-80
2022/02/15 08:28:06;;;;;;;13.77;11.25;;;8.30;99.90;;;;;;5070031;28;20184;-80
2022/02/15 08:30:33;;;;;;;15.73;10.38;;;8.50;99.90;;;;;;5068141;28;20222;-81
2022/02/15 08:33:02;;;;;;;13.50;11.35;;;8.50;99.90;;;;;;5073037;28;20289;-82
2022/02/15 08:35:30;;;;;;;13.27;10.50;;;8.60;99.90;;;;;;5072405;28;20196;-83
2022/02/15 08:37:57;;;;;;;16.83;10.77;;;8.30;99.90;;;;;;5068384;28;20211;-82
2022/02/15 08:40:25;;;;;;;16.17;11.40;;;8.30;99.90;;;;;;5069225;28;20273;-80
2022/02/15 08:42:52;;;;;;;16.90;10.63;;;8.20;99.90;;;;;;5060863;28;20203;-83
2022/02/15 08:45:19;;;;;;;15.32;10.57;;;9.20;99.90;;;;;;5072073;28;20208;-82
2022/02/15 08:47:46;;;;;;;15.60;9.80;;;9.80;99.90;;;;;;5085209;28;20249;-82
2022/02/15 08:50:14;;;;;;;18.35;10.50;;;9.90;99.90;;;;;;5085155;28;20235;-82
2022/02/15 08:52:41;;;;;;;14.40;10.23;;;9.60;99.90;;;;;;5065891;28;20235;-81
2022/02/15 08:55:10;;;;;;;15.00;10.13;;;9.60;99.90;;;;;;5057360;28;20192;-82
2022/02/15 08:57:37;;;;;;;16.50;11.15;;;9.00;99.90;;;;;;5069678;28;20251;-81
2022/02/15 09:00:06;;;;;;;18.90;11.30;;;9.00;99.90;;;;;;5083372;28;20230;-81
2022/02/15 09:02:35;;;;;;;19.48;13.15;;;9.00;99.90;;;;;;5064131;28;20183;-82
2022/02/15 09:05:03;;;;;;;19.77;13.07;;;9.10;99.90;;;;;;5079399;28;20200;-81
2022/02/15 09:07:40;;;;;;;18.38;11.00;;;8.90;99.90;;;;;;5080402;28;20195;-81
2022/02/15 09:10:08;;;;;;;21.67;12.35;;;8.90;99.90;;;;;;5080565;28;20275;-82
2022/02/15 09:12:50;;;;;;;17.20;12.93;;;8.90;99.90;;;;;;5082753;28;20235;-82
2022/02/15 09:15:16;;;;;;;20.17;12.98;;;8.80;99.90;;;;;;5098786;28;20222;-83
2022/02/15 09:17:43;;;;;;;19.23;11.88;;;8.70;99.90;;;;;;5080607;28;20242;-82
2022/02/15 09:20:12;;;;;;;16.85;12.55;;;8.60;99.90;;;;;;5080678;28;20235;-84
2022/02/15 09:22:41;;;;;;;18.77;12.18;;;8.50;99.90;;;;;;5076521;28;20244;-84
2022/02/15 09:25:10;;;;;;;15.30;10.38;;;8.50;99.90;;;;;;5051653;28;20263;-81
2022/02/15 09:27:37;;;;;;;16.13;11.00;;;8.70;99.90;;;;;;5066426;28;20243;-83
2022/02/15 09:30:05;;;;;;;18.08;10.80;;;8.70;99.90;;;;;;5064308;28;20239;-82
2022/02/15 09:32:32;;;;;;;15.48;11.27;;;8.60;99.90;;;;;;5073980;28;20207;-82
2022/02/15 09:34:59;;;;;;;16.08;10.55;;;8.50;99.90;;;;;;5065912;28;20223;-82
2022/02/15 09:37:26;;;;;;;19.02;11.10;;;8.80;99.90;;;;;;5065820;28;20246;-82
2022/02/15 09:39:55;;;;;;;18.52;10.90;;;9.10;99.90;;;;;;5067397;28;20223;-82
2022/02/15 09:42:23;;;;;;;27.05;12.85;;;9.10;99.90;;;;;;5070210;28;20226;-82
2022/02/15 09:44:50;;;;;;;14.30;9.30;;;9.10;99.90;;;;;;5067764;28;20215;-82
2022/02/15 09:47:24;;;;;;;25.15;13.45;;;9.00;99.90;;;;;;5075716;28;20204;-84
2022/02/15 09:49:52;;;;;;;18.38;12.32;;;9.10;99.90;;;;;;5072441;28;20301;-84
2022/02/15 09:52:22;;;;;;;29.95;13.18;;;9.00;99.90;;;;;;5061137;28;20212;-86
2022/02/15 09:54:50;;;;;;;17.25;12.98;;;8.90;99.90;;;;;;5065064;28;20218;-82
2022/02/15 09:57:19;;;;;;;15.85;9.50;;;9.10;99.90;;;;;;5068344;28;20216;-81
2022/02/15 09:59:47;;;;;;;13.00;9.80;;;9.00;99.90;;;;;;5063702;28;20665;-81
2022/02/15 10:02:18;;;;;;;13.60;10.48;;;9.20;99.90;;;;;;5061168;28;20240;-84
2022/02/15 10:04:46;;;;;;;20.83;9.52;;;9.00;99.90;;;;;;5076214;28;20211;-82
2022/02/15 10:07:14;;;;;;;16.42;9.60;;;8.80;99.90;;;;;;5068244;28;20204;-84
2022/02/15 10:09:42;;;;;;;13.50;9.80;;;8.80;99.90;;;;;;5071997;28;20223;-83
2022/02/15 10:12:11;;;;;;;12.05;10.43;;;8.70;99.90;;;;;;5065790;28;20227;-84
2022/02/15 10:14:41;;;;;;;18.98;11.63;;;8.80;99.90;;;;;;5062663;28;20242;-81
2022/02/15 10:17:12;;;;;;;19.15;12.68;;;8.90;99.90;;;;;;5069947;28;20314;-80
2022/02/15 10:19:39;;;;;;;24.55;14.20;;;9.00;99.90;;;;;;5066960;28;20602;-81
2022/02/15 10:22:07;;;;;;;22.25;14.43;;;9.30;99.90;;;;;;5068052;28;20215;-82
2022/02/15 10:24:36;;;;;;;21.42;15.43;;;9.40;99.90;;;;;;5074997;28;20215;-83
2022/02/15 10:27:05;;;;;;;22.73;15.52;;;9.70;99.90;;;;;;5072767;28;20261;-79
2022/02/15 10:29:34;;;;;;;27.88;15.60;;;9.80;99.90;;;;;;5069991;28;20232;-78
2022/02/15 10:32:04;;;;;;;17.25;13.52;;;9.90;99.90;;;;;;5067905;28;20200;-80
2022/02/15 10:34:31;;;;;;;22.13;13.43;;;10.40;99.90;;;;;;5065589;28;20672;-79
2022/02/15 10:37:04;;;;;;;19.58;15.43;;;10.80;99.90;;;;;;5064773;28;20216;-79
2022/02/15 10:39:39;;;;;;;20.27;14.93;;;11.40;99.90;;;;;;5064698;28;20317;-80
2022/02/15 10:42:08;;;;;;;19.52;14.40;;;11.40;99.90;;;;;;5062323;28;20206;-80
2022/02/15 10:44:52;;;;;;;23.23;13.80;;;10.90;99.90;;;;;;5077286;28;20205;-81
2022/02/15 10:47:21;;;;;;;27.77;16.30;;;10.80;99.90;;;;;;5073340;28;20194;-82
2022/02/15 10:49:49;;;;;;;19.50;15.93;;;11.00;99.90;;;;;;5071384;28;20275;-83
2022/02/15 10:52:17;;;;;;;17.67;13.50;;;11.10;99.90;;;;;;5064966;28;20278;-79
2022/02/15 10:54:44;;;;;;;16.20;12.68;;;11.20;99.90;;;;;;5060402;28;20210;-80
2022/02/15 10:57:15;;;;;;;18.90;13.57;;;11.10;99.90;;;;;;5062039;28;21441;-81
2022/02/15 10:59:43;;;;;;;19.00;13.88;;;11.00;99.90;;;;;;5062867;28;20311;-80
2022/02/15 11:02:20;;;;;;;17.63;12.88;;;10.60;99.90;;;;;;5052046;28;20221;-80
2022/02/15 11:04:49;;;;;;;22.17;15.40;;;10.40;99.90;;;;;;5068890;28;20225;-81
2022/02/15 11:07:17;;;;;;;18.85;14.77;;;10.20;99.90;;;;;;5059973;28;20204;-80
2022/02/15 11:09:57;;;;;;;19.90;13.80;;;10.00;99.90;;;;;;5061320;28;20255;-82
2022/02/15 11:12:32;;;;;;;19.63;13.88;;;9.90;99.90;;;;;;5061110;28;20199;-79
2022/02/15 11:15:02;;;;;;;23.23;13.82;;;9.70;99.90;;;;;;5053496;28;20631;-81
2022/02/15 11:17:29;;;;;;;26.20;16.38;;;9.60;99.90;;;;;;5061719;28;20680;-80
2022/02/15 11:20:02;;;;;;;18.85;15.75;;;9.70;99.90;;;;;;5061080;28;20247;-79
2022/02/15 11:22:29;;;;;;;19.58;14.23;;;9.80;99.90;;;;;;5067486;28;20223;-82
2022/02/15 11:24:58;;;;;;;16.92;13.00;;;9.50;99.90;;;;;;5056024;28;20236;-79
2022/02/15 11:27:25;;;;;;;22.30;16.02;;;9.40;99.90;;;;;;5059759;28;20247;-81
2022/02/15 11:29:54;;;;;;;20.58;12.98;;;9.40;99.90;;;;;;5067475;28;20230;-81
2022/02/15 11:32:26;;;;;;;24.30;14.65;;;9.40;99.90;;;;;;5076047;28;20512;-82
2022/02/15 11:34:54;;;;;;;18.35;13.43;;;9.60;99.90;;;;;;5063678;28;20214;-82
2022/02/15 11:37:24;;;;;;;22.13;15.05;;;9.60;99.90;;;;;;5065589;28;20219;-85
2022/02/15 11:40:02;;;;;;;20.30;14.27;;;9.70;99.90;;;;;;5067835;28;20566;-81
2022/02/15 11:42:29;;;;;;;20.05;14.07;;;10.00;99.90;;;;;;5064486;28;20228;-81
2022/02/15 11:44:56;;;;;;;22.00;13.57;;;10.10;99.90;;;;;;5058005;28;20191;-81
2022/02/15 11:47:28;;;;;;;13.85;12.20;;;10.00;99.90;;;;;;5064135;28;20225;-83
2022/02/15 11:49:57;;;;;;;17.98;13.25;;;10.00;99.90;;;;;;5074400;28;20231;-83
2022/02/15 11:52:27;;;;;;;16.67;13.57;;;10.10;99.90;;;;;;5073048;28;20240;-83
2022/02/15 11:55:02;;;;;;;17.73;13.30;;;10.20;99.90;;;;;;5063675;28;20205;-81
2022/02/15 11:57:31;;;;;;;19.08;13.50;;;10.30;99.90;;;;;;5061581;28;20229;-84
2022/02/15 11:59:59;;;;;;;23.17;16.55;;;10.40;99.90;;;;;;5063406;28;20272;-82
2022/02/15 12:02:26;;;;;;;18.65;13.00;;;10.40;99.90;;;;;;5076562;28;20223;-83
2022/02/15 12:04:55;;;;;;;19.25;13.10;;;10.40;99.90;;;;;;5062966;28;20546;-81
2022/02/15 12:07:28;;;;;;;18.70;11.85;;;10.40;99.90;;;;;;5061798;28;20220;-82
2022/02/15 12:09:56;;;;;;;19.23;13.57;;;10.50;99.90;;;;;;5070041;28;20645;-81
2022/02/15 12:12:30;;;;;;;16.75;12.65;;;10.40;99.90;;;;;;5063072;28;20235;-83
2022/02/15 12:14:57;;;;;;;19.02;12.52;;;10.20;99.90;;;;;;5063154;28;20294;-83
2022/02/15 12:17:26;;;;;;;18.02;12.48;;;9.90;99.90;;;;;;5063798;28;20287;-81
2022/02/15 12:19:56;;;;;;;15.88;12.20;;;9.70;99.90;;;;;;5063156;28;20232;-83
2022/02/15 12:22:24;;;;;;;25.13;13.85;;;9.70;99.90;;;;;;5060751;28;20261;-82
2022/02/15 12:24:54;;;;;;;18.70;13.70;;;9.70;99.90;;;;;;5073426;28;20623;-82
2022/02/15 12:27:21;;;;;;;15.65;11.75;;;10.00;99.90;;;;;;5071102;28;20743;-84
2022/02/15 12:29:50;;;;;;;18.02;11.85;;;9.80;99.90;;;;;;5063630;28;20840;-80
2022/02/15 12:32:23;;;;;;;18.15;12.25;;;9.80;99.90;;;;;;5071085;28;20215;-80
2022/02/15 12:34:50;;;;;;;22.08;15.50;;;9.70;99.90;;;;;;5065049;28;20217;-82
2022/02/15 12:37:21;;;;;;;20.75;13.77;;;9.80;99.90;;;;;;5071314;28;20286;-80
2022/02/15 12:39:53;;;;;;;22.42;15.82;;;9.80;99.90;;;;;;5074674;28;20298;-82
2022/02/15 12:42:21;;;;;;;19.92;13.90;;;9.90;99.90;;;;;;5063160;28;20235;-81
2022/02/15 12:44:59;;;;;;;18.95;12.20;;;10.30;99.90;;;;;;5073594;28;20209;-81
2022/02/15 12:47:27;;;;;;;22.67;12.38;;;10.40;99.90;;;;;;5083153;28;20215;-81
2022/02/15 12:49:55;;;;;;;17.52;11.68;;;10.30;99.90;;;;;;5084339;28;20234;-82
2022/02/15 12:52:23;;;;;;;21.40;12.50;;;10.40;99.90;;;;;;5062434;28;20211;-82
2022/02/15 12:54:51;;;;;;;15.98;10.50;;;10.40;99.90;;;;;;5071545;28;20288;-82
2022/02/15 12:57:21;;;;;;;16.20;11.02;;;10.50;99.90;;;;;;5079757;28;20205;-82
2022/02/15 12:59:51;;;;;;;15.18;10.85;;;10.20;99.90;;;;;;5067497;28;20291;-82